This is the latest recevied weather packets stored in our database for station/object KK7UNF. If no packets are shown the sender has not sent any weather packets the latest 10 day(s).
| Time | Temp. | Humidity | Pressure | Rain* | Wind** | Luminosity | Snow |
|---|---|---|---|---|---|---|---|
| 1778273144 | 13.33° C | 76% | 1022.2 hPa | 0 mm | - | 141 W/m² | - |
| 1778270446 | 12.78° C | 77% | 1022.1 hPa | 0 mm | - | 181 W/m² | - |
| 1778268641 | 11.67° C | 80% | 1021.9 hPa | 0 mm | - | 102 W/m² | - |
| 1778267748 | 11.67° C | 81% | 1022 hPa | 0 mm | - | 125 W/m² | - |
| 1778265940 | 12.22° C | 80% | 1021.7 hPa | 0 mm | - | 118 W/m² | - |
| 1778264151 | 12.22° C | 81% | 1021.6 hPa | 0 mm | - | 156 W/m² | - |
| 1778263242 | 11.67° C | 81% | 1021.5 hPa | 0 mm | - | 83 W/m² | - |
| 1778262342 | 11.67° C | 83% | 1021.1 hPa | 0 mm | - | 47 W/m² | - |
| 1778243439 | 7.78° C | 91% | 1018 hPa | 0 mm | - | 0 W/m² | - |
| 1778241655 | 7.78° C | 91% | 1017.8 hPa | 0 mm | - | 0 W/m² | - |
| 1778238054 | 8.33° C | 90% | 1017.3 hPa | 0 mm | - | 0 W/m² | - |
| 1778235341 | 8.33° C | 90% | 1017 hPa | 0 mm | - | 0 W/m² | - |
| 1778231748 | 8.89° C | 91% | 1017.1 hPa | 0 mm | - | 0 W/m² | - |
| 1778220941 | 10.56° C | 88% | 1017.6 hPa | 0 mm | - | 0 W/m² | - |
| 1778219180 | 11.11° C | 87% | 1017.5 hPa | 0 mm | - | 0 W/m² | - |
| 1778214651 | 12.78° C | 82% | 1017.8 hPa | 0 mm | - | 0 W/m² | - |
| 1778201141 | 16.11° C | 70% | 1018.5 hPa | 0 mm | - | 116 W/m² | - |
| 1778184937 | 14.44° C | 78% | 1020.6 hPa | 0 mm | - | 192 W/m² | - |
| 1778177746 | 12.78° C | 82% | 1021.1 hPa | 0 mm | - | 67 W/m² | - |
| 1778175040 | 12.22° C | 84% | 1021.3 hPa | 0 mm | - | 149 W/m² | - |
| 1778164245 | 10° C | 92% | 1021.2 hPa | 0 mm | - | 39 W/m² | - |
| 1778163342 | 10° C | 93% | 1021.2 hPa | 0 mm | - | 25 W/m² | - |
| 1778162456 | 10° C | 94% | 1021.1 hPa | 0 mm | - | 21 W/m² | - |
| 1778158847 | 10° C | 92% | 1021 hPa | 0 mm | - | 0 W/m² | - |
| 1778142641 | 11.67° C | 91% | 1021.7 hPa | 0 mm | - | 0 W/m² | - |
* Rain latest hour (hover to see other rain measurements)
** Current wind speed in m/s (hover to see current wind gust speed)